Sligo, Ireland
Current Conditions -  °F | °C
As of 5:30 PM on Thursday 18 Dec 2014 (Local Time) from EISG Reporting Station
Drizzle Drizzle  
Wind Chill: 40°   Ceiling: 4400
Heat Index: 46°   Visibility: 4mi
Dew Point: 43°   Wind: 14mph
Humidity: 87%   Direction: 250°WSW
Pressure: 29.59"   Gusts: NA
Location:  54.28°N, 8.48°W
Report Text: EISG 181730Z 25012KT 6000 -DZ FEW025 BKN044 OVC050 08/06 Q1002
Loading
Personal Weather Stations






























Interactive Weather Map New forecast layout! Learn more

10-Day Weather Forecast

Advertisements
Track Severe Weather on mobile